Time;durP1;ratioP1;P1;durP2;ratioP2;P2;SDS_P1;SDS_P2;PMS_P1;PMS_P2;Temp;Humidity;BMP_temperature;BMP_pressure;BME280_temperature;BME280_humidity;BME280_pressure;Samples;Min_cycle;Max_cycle;Signal;HPM_P1;HPM_P2
2023/06/21 00:04:38;;;;;;;5.03;4.63;;;;;;;;;;10274960;28;1110373;-60
2023/06/21 00:09:39;;;;;;;6.25;5.65;;;;;;;;;;10311155;28;20060;-60
2023/06/21 00:14:37;;;;;;;5.80;5.05;;;;;;;;;;10311299;28;20072;-60
2023/06/21 00:19:35;;;;;;;6.18;5.57;;;;;;;;;;10305421;28;20056;-60
2023/06/21 00:24:34;;;;;;;6.88;4.85;;;;;;;;;;10306452;28;20461;-60
2023/06/21 00:29:33;;;;;;;7.30;4.72;;;;;;;;;;10304950;28;20060;-60
2023/06/21 00:34:32;;;;;;;6.75;4.95;;;;;;;;;;10310541;28;20072;-60
2023/06/21 00:39:30;;;;;;;5.15;4.65;;;;;;;;;;10309689;28;20740;-61
2023/06/21 00:44:29;;;;;;;8.55;5.55;;;;;;;;;;10310827;28;20489;-59
2023/06/21 00:49:29;;;;;;;5.57;5.07;;;;;;;;;;10311103;28;20569;-60
2023/06/21 00:54:35;;;;;;;5.50;5.00;;;;;;;;;;10313745;28;20462;-59
2023/06/21 00:59:33;;;;;;;5.85;5.35;;;;;;;;;;10311274;28;20079;-59
2023/06/21 01:04:33;;;;;;;9.45;5.15;;;;;;;;;;10312984;28;20072;-59
2023/06/21 01:09:37;;;;;;;5.45;4.60;;;;;;;;;;10311727;28;20068;-60
2023/06/21 01:14:39;;;;;;;4.95;4.47;;;;;;;;;;10313349;28;20479;-59
2023/06/21 01:19:41;;;;;;;6.07;5.47;;;;;;;;;;10314558;28;20064;-59
2023/06/21 01:24:45;;;;;;;4.45;4.13;;;;;;;;;;10313521;28;20067;-60
2023/06/21 01:29:47;;;;;;;5.57;5.07;;;;;;;;;;10312412;28;20063;-60
2023/06/21 01:34:46;;;;;;;9.02;5.53;;;;;;;;;;10312872;28;20631;-59
2023/06/21 01:39:44;;;;;;;6.07;5.18;;;;;;;;;;10312291;28;20532;-59
2023/06/21 01:44:43;;;;;;;8.50;5.03;;;;;;;;;;10314370;28;20071;-60
2023/06/21 01:49:43;;;;;;;5.63;5.13;;;;;;;;;;10311749;28;20083;-59
2023/06/21 01:54:42;;;;;;;5.10;4.70;;;;;;;;;;10317625;28;20079;-60
2023/06/21 01:59:41;;;;;;;9.82;5.30;;;;;;;;;;10321242;28;20068;-60
2023/06/21 02:04:40;;;;;;;7.35;5.50;;;;;;;;;;10319850;28;20052;-61
2023/06/21 02:09:40;;;;;;;6.38;5.38;;;;;;;;;;10321378;28;20066;-60
2023/06/21 02:14:39;;;;;;;5.60;5.13;;;;;;;;;;10320522;28;20064;-59
2023/06/21 02:19:39;;;;;;;6.60;5.72;;;;;;;;;;10319941;28;20048;-58
2023/06/21 02:24:37;;;;;;;6.80;5.43;;;;;;;;;;10310583;28;20072;-59
2023/06/21 02:29:37;;;;;;;5.55;5.05;;;;;;;;;;10315818;28;20074;-59
2023/06/21 02:34:36;;;;;;;10.52;5.32;;;;;;;;;;10313572;28;20071;-59
2023/06/21 02:39:34;;;;;;;5.85;5.35;;;;;;;;;;10314338;28;20462;-60
2023/06/21 02:44:32;;;;;;;5.88;5.38;;;;;;;;;;10314377;28;20075;-60
2023/06/21 02:49:36;;;;;;;6.70;5.07;;;;;;;;;;10317918;28;20075;-60
2023/06/21 02:54:34;;;;;;;9.77;5.70;;;;;;;;;;10310537;28;20076;-59
2023/06/21 02:59:32;;;;;;;6.60;5.28;;;;;;;;;;10317822;28;20075;-59
2023/06/21 03:04:32;;;;;;;6.07;5.45;;;;;;;;;;10331702;28;20083;-59
2023/06/21 03:09:30;;;;;;;5.70;5.20;;;;;;;;;;10316506;28;20068;-60
2023/06/21 03:14:29;;;;;;;8.38;5.50;;;;;;;;;;10314995;28;20076;-59
2023/06/21 03:19:27;;;;;;;6.38;5.80;;;;;;;;;;10317516;28;20068;-60
2023/06/21 03:24:32;;;;;;;7.15;5.45;;;;;;;;;;10315848;28;20705;-60
2023/06/21 03:29:34;;;;;;;7.25;5.75;;;;;;;;;;10315529;28;20099;-60
2023/06/21 03:34:32;;;;;;;6.80;6.00;;;;;;;;;;10310734;28;20076;-60
2023/06/21 03:39:32;;;;;;;7.07;6.38;;;;;;;;;;10306969;28;20083;-60
2023/06/21 03:44:31;;;;;;;6.80;5.82;;;;;;;;;;10305420;28;20068;-60
2023/06/21 03:49:30;;;;;;;8.73;5.82;;;;;;;;;;10316373;28;20072;-60
2023/06/21 03:54:28;;;;;;;11.27;6.00;;;;;;;;;;10314744;28;20075;-60
2023/06/21 03:59:28;;;;;;;6.13;5.63;;;;;;;;;;10303907;28;20079;-59
2023/06/21 04:04:26;;;;;;;14.88;6.40;;;;;;;;;;10314371;28;20075;-59
2023/06/21 04:09:25;;;;;;;6.60;5.43;;;;;;;;;;10314512;28;20072;-60
2023/06/21 04:14:23;;;;;;;11.27;5.80;;;;;;;;;;10314955;28;20076;-58
2023/06/21 04:19:22;;;;;;;10.60;5.78;;;;;;;;;;10317388;28;20075;-60
2023/06/21 04:24:21;;;;;;;6.63;5.18;;;;;;;;;;10312375;28;20072;-60
2023/06/21 04:29:21;;;;;;;5.88;5.35;;;;;;;;;;10312305;28;20075;-60
2023/06/21 04:34:20;;;;;;;9.57;5.97;;;;;;;;;;10301074;28;20076;-60
2023/06/21 04:39:21;;;;;;;7.32;5.97;;;;;;;;;;10305420;28;20061;-59
2023/06/21 04:44:19;;;;;;;6.97;5.65;;;;;;;;;;10307114;28;20150;-59
2023/06/21 04:49:17;;;;;;;8.73;5.65;;;;;;;;;;10312727;28;20079;-59
2023/06/21 04:54:16;;;;;;;7.10;6.40;;;;;;;;;;10310446;28;20068;-60
2023/06/21 04:59:16;;;;;;;13.45;7.25;;;;;;;;;;10314762;28;20075;-59
2023/06/21 05:04:14;;;;;;;7.28;5.45;;;;;;;;;;10314020;28;20080;-59
2023/06/21 05:09:13;;;;;;;7.82;5.80;;;;;;;;;;10312173;28;20064;-59
2023/06/21 05:14:11;;;;;;;7.47;5.63;;;;;;;;;;10313438;28;20067;-59
2023/06/21 05:19:11;;;;;;;9.50;5.93;;;;;;;;;;10313658;28;20079;-58
2023/06/21 05:24:09;;;;;;;5.82;5.32;;;;;;;;;;10311528;28;20072;-58
2023/06/21 05:29:07;;;;;;;6.43;5.82;;;;;;;;;;10311596;28;20147;-59
2023/06/21 05:34:05;;;;;;;8.98;6.28;;;;;;;;;;10309100;28;20155;-59
2023/06/21 05:39:05;;;;;;;6.35;5.75;;;;;;;;;;10311130;28;20078;-59
2023/06/21 05:44:03;;;;;;;9.63;6.70;;;;;;;;;;10308156;28;20469;-57
2023/06/21 05:49:02;;;;;;;7.43;6.70;;;;;;;;;;10303575;28;20458;-59
2023/06/21 05:54:00;;;;;;;9.48;6.10;;;;;;;;;;10305604;28;20072;-59
2023/06/21 05:59:00;;;;;;;7.28;6.55;;;;;;;;;;10304620;28;20088;-59
2023/06/21 06:03:58;;;;;;;11.02;7.10;;;;;;;;;;10300358;28;20537;-60
2023/06/21 06:08:56;;;;;;;9.82;6.90;;;;;;;;;;10297275;28;20065;-60
2023/06/21 06:13:54;;;;;;;11.93;8.43;;;;;;;;;;10305491;28;20092;-59
2023/06/21 06:18:54;;;;;;;14.90;9.02;;;;;;;;;;10299368;28;20087;-58
2023/06/21 06:23:53;;;;;;;7.53;5.95;;;;;;;;;;10304133;28;20068;-58
2023/06/21 06:28:51;;;;;;;11.05;9.95;;;;;;;;;;10306219;28;20068;-59
2023/06/21 06:33:50;;;;;;;9.32;7.40;;;;;;;;;;10307148;28;20068;-58
2023/06/21 06:38:49;;;;;;;10.57;6.15;;;;;;;;;;10307640;28;20072;-58
2023/06/21 06:43:48;;;;;;;10.50;5.78;;;;;;;;;;10318590;28;20074;-57
2023/06/21 06:48:46;;;;;;;9.45;6.53;;;;;;;;;;10313348;28;20083;-59
2023/06/21 06:53:44;;;;;;;7.47;5.75;;;;;;;;;;10316172;28;20075;-59
2023/06/21 06:58:44;;;;;;;7.90;5.72;;;;;;;;;;10319405;28;20068;-59
2023/06/21 07:03:42;;;;;;;6.10;5.50;;;;;;;;;;10331302;28;20506;-58
2023/06/21 07:08:44;;;;;;;6.20;5.20;;;;;;;;;;10313293;28;20501;-59
2023/06/21 07:13:44;;;;;;;6.03;5.53;;;;;;;;;;10318658;28;20497;-59
2023/06/21 07:18:42;;;;;;;9.32;8.48;;;;;;;;;;10315269;28;20071;-59
2023/06/21 07:23:40;;;;;;;8.95;5.80;;;;;;;;;;10318598;28;20110;-59
2023/06/21 07:28:39;;;;;;;11.45;5.72;;;;;;;;;;10318155;28;20072;-59
2023/06/21 07:33:38;;;;;;;11.40;7.70;;;;;;;;;;10310479;28;20068;-60
2023/06/21 07:38:36;;;;;;;8.88;6.10;;;;;;;;;;10311310;28;20537;-60
2023/06/21 07:43:34;;;;;;;6.53;5.93;;;;;;;;;;10313440;28;20068;-60
2023/06/21 07:48:33;;;;;;;7.43;6.50;;;;;;;;;;10312314;28;20072;-60
2023/06/21 07:53:33;;;;;;;6.85;6.25;;;;;;;;;;10313142;28;20598;-60
2023/06/21 07:58:31;;;;;;;6.72;6.07;;;;;;;;;;10314338;28;20620;-61
2023/06/21 08:03:29;;;;;;;7.10;6.50;;;;;;;;;;10316652;28;20462;-59
2023/06/21 08:08:28;;;;;;;7.97;6.63;;;;;;;;;;10315092;28;20084;-60
2023/06/21 08:13:28;;;;;;;9.35;6.95;;;;;;;;;;10315075;28;20052;-60
2023/06/21 08:18:26;;;;;;;7.85;7.05;;;;;;;;;;10304839;28;20076;-59
2023/06/21 08:23:24;;;;;;;6.82;6.10;;;;;;;;;;10305397;28;20084;-60
2023/06/21 08:28:22;;;;;;;8.98;5.95;;;;;;;;;;10310754;28;20430;-60
2023/06/21 08:33:22;;;;;;;10.38;6.72;;;;;;;;;;10312721;28;20473;-59
2023/06/21 08:38:20;;;;;;;8.43;6.88;;;;;;;;;;10308367;28;20072;-60
2023/06/21 08:43:25;;;;;;;8.40;5.90;;;;;;;;;;10311961;28;20067;-59
2023/06/21 08:48:26;;;;;;;7.55;6.78;;;;;;;;;;10310478;28;20676;-59
2023/06/21 08:53:30;;;;;;;7.93;5.85;;;;;;;;;;10310105;28;20072;-59
2023/06/21 08:58:28;;;;;;;;;;;;;;;;;;10312104;28;20497;-60
2023/06/21 09:03:29;;;;;;;5.60;5.03;;;;;;;;;;10309113;28;20416;-60
2023/06/21 09:08:28;;;;;;;6.07;5.30;;;;;;;;;;10306943;28;20083;-60
2023/06/21 09:13:27;;;;;;;5.93;5.35;;;;;;;;;;10311985;28;20075;-60
2023/06/21 09:18:35;;;;;;;7.13;4.43;;;;;;;;;;10308115;28;20072;-60
2023/06/21 09:23:33;;;;;;;5.78;5.25;;;;;;;;;;10307930;28;20177;-60
2023/06/21 09:28:32;;;;;;;5.60;4.25;;;;;;;;;;10305194;28;20082;-60
2023/06/21 09:33:32;;;;;;;5.00;4.50;;;;;;;;;;10297639;28;20087;-60
2023/06/21 09:38:32;;;;;;;8.20;4.80;;;;;;;;;;10306413;28;20462;-61
2023/06/21 09:43:31;;;;;;;7.25;5.30;;;;;;;;;;10305448;28;20083;-60
2023/06/21 09:48:31;;;;;;;5.43;4.93;;;;;;;;;;10305517;28;20060;-60
2023/06/21 09:53:31;;;;;;;5.20;4.78;;;;;;;;;;10310661;28;20083;-60
2023/06/21 09:58:29;;;;;;;5.47;4.97;;;;;;;;;;10294673;28;20068;-60
2023/06/21 10:03:27;;;;;;;6.55;4.78;;;;;;;;;;10307486;28;20076;-60
2023/06/21 10:08:26;;;;;;;5.20;4.70;;;;;;;;;;10303012;28;20069;-60
2023/06/21 10:13:27;;;;;;;5.57;4.97;;;;;;;;;;10304886;28;20079;-59
2023/06/21 10:18:25;;;;;;;5.90;4.90;;;;;;;;;;10314852;28;20076;-60
2023/06/21 10:23:28;;;;;;;7.65;4.95;;;;;;;;;;10310552;28;20068;-59
2023/06/21 10:28:28;;;;;;;6.13;5.07;;;;;;;;;;10312336;28;20068;-61
2023/06/21 10:33:29;;;;;;;5.47;4.97;;;;;;;;;;10316156;28;20978;-61
2023/06/21 10:38:31;;;;;;;5.15;4.65;;;;;;;;;;10307552;28;20651;-60
2023/06/21 10:43:31;;;;;;;5.70;4.97;;;;;;;;;;10309880;28;20076;-59
2023/06/21 10:48:31;;;;;;;6.78;4.93;;;;;;;;;;10306527;28;20072;-59
2023/06/21 10:53:30;;;;;;;5.15;4.45;;;;;;;;;;10308394;28;20060;-59
2023/06/21 10:58:29;;;;;;;5.40;4.70;;;;;;;;;;10313440;28;20068;-61
2023/06/21 11:03:28;;;;;;;8.43;4.57;;;;;;;;;;10302711;28;20087;-60
2023/06/21 11:08:31;;;;;;;5.65;4.97;;;;;;;;;;10311074;28;20064;-60
2023/06/21 11:13:36;;;;;;;7.57;4.87;;;;;;;;;;10306333;28;20146;-60
2023/06/21 11:18:36;;;;;;;5.60;4.82;;;;;;;;;;10307688;28;20068;-60
2023/06/21 11:23:48;;;;;;;4.75;4.35;;;;;;;;;;10307926;28;20070;-61
2023/06/21 11:28:47;;;;;;;5.47;5.05;;;;;;;;;;10297778;28;20064;-60
2023/06/21 11:33:49;;;;;;;5.80;5.28;;;;;;;;;;10321019;28;20068;-60
2023/06/21 11:38:51;;;;;;;5.40;4.90;;;;;;;;;;10303913;28;20072;-60
2023/06/21 11:43:56;;;;;;;6.40;4.43;;;;;;;;;;10303409;28;20518;-58
2023/06/21 11:49:00;;;;;;;5.40;4.85;;;;;;;;;;10292510;28;20509;-58
2023/06/21 11:53:58;;;;;;;5.90;5.43;;;;;;;;;;10299867;28;20071;-59
2023/06/21 11:58:56;;;;;;;6.10;5.50;;;;;;;;;;10307350;28;20075;-58
2023/06/21 12:04:02;;;;;;;4.95;4.55;;;;;;;;;;10299283;28;20084;-57
2023/06/21 12:09:03;;;;;;;7.97;4.50;;;;;;;;;;10308670;28;20068;-60
2023/06/21 12:14:06;;;;;;;4.68;4.28;;;;;;;;;;10305494;28;20068;-59
2023/06/21 12:19:08;;;;;;;5.63;4.43;;;;;;;;;;10301259;28;20068;-57
2023/06/21 12:24:07;;;;;;;8.07;5.57;;;;;;;;;;10298612;28;20330;-59
2023/06/21 12:29:06;;;;;;;7.80;5.18;;;;;;;;;;10305015;28;20064;-58
2023/06/21 12:34:04;;;;;;;9.23;5.07;;;;;;;;;;10304812;28;20197;-57
2023/06/21 12:39:05;;;;;;;5.05;4.55;;;;;;;;;;10301638;28;20072;-60
2023/06/21 12:44:07;;;;;;;5.55;5.05;;;;;;;;;;10308217;28;20174;-54
2023/06/21 12:49:06;;;;;;;5.57;4.30;;;;;;;;;;10309455;28;20068;-58
2023/06/21 12:54:07;;;;;;;8.30;4.38;;;;;;;;;;10301346;28;20079;-56
2023/06/21 12:59:07;;;;;;;5.70;4.60;;;;;;;;;;10309939;28;20076;-58
2023/06/21 13:04:06;;;;;;;6.10;5.50;;;;;;;;;;10301424;28;20072;-59
2023/06/21 13:09:05;;;;;;;8.63;6.00;;;;;;;;;;10298127;28;20635;-58
2023/06/21 13:14:04;;;;;;;8.55;6.15;;;;;;;;;;10302008;28;20072;-56
2023/06/21 13:19:06;;;;;;;25.67;10.57;;;;;;;;;;10298825;28;20076;-58
2023/06/21 13:24:05;;;;;;;8.75;4.65;;;;;;;;;;10289868;28;20064;-58
2023/06/21 13:29:03;;;;;;;14.77;7.18;;;;;;;;;;10289415;28;20130;-57
2023/06/21 13:34:02;;;;;;;6.72;4.60;;;;;;;;;;10291173;28;20135;-58
2023/06/21 13:39:01;;;;;;;6.68;4.50;;;;;;;;;;10294292;28;20517;-59
2023/06/21 13:44:00;;;;;;;11.45;5.85;;;;;;;;;;10289252;28;20064;-60
2023/06/21 13:48:58;;;;;;;10.50;5.20;;;;;;;;;;10299972;28;20107;-59
2023/06/21 13:53:56;;;;;;;6.47;4.53;;;;;;;;;;10297874;28;20084;-58
2023/06/21 13:58:56;;;;;;;4.90;4.40;;;;;;;;;;10302771;28;20076;-58
2023/06/21 14:03:54;;;;;;;16.70;8.63;;;;;;;;;;10299021;28;20084;-61
2023/06/21 14:08:53;;;;;;;7.88;4.60;;;;;;;;;;10304418;28;20071;-59
2023/06/21 14:13:55;;;;;;;5.82;5.22;;;;;;;;;;10314750;28;20071;-59
2023/06/21 14:18:54;;;;;;;5.67;5.10;;;;;;;;;;10309978;28;20064;-59
2023/06/21 14:23:54;;;;;;;5.28;4.82;;;;;;;;;;10315286;28;20060;-59
2023/06/21 14:28:52;;;;;;;5.53;4.38;;;;;;;;;;10311881;28;20075;-58
2023/06/21 14:33:54;;;;;;;5.80;4.97;;;;;;;;;;10302617;28;20507;-58
2023/06/21 14:38:52;;;;;;;7.70;5.20;;;;;;;;;;10304325;28;20064;-61
2023/06/21 14:43:50;;;;;;;5.90;4.85;;;;;;;;;;10314770;28;20072;-59
2023/06/21 14:48:52;;;;;;;4.72;4.22;;;;;;;;;;10313561;28;20086;-59
2023/06/21 14:53:52;;;;;;;7.38;4.85;;;;;;;;;;10316021;28;20068;-59
2023/06/21 14:58:55;;;;;;;5.00;4.55;;;;;;;;;;10316885;28;20071;-60
2023/06/21 15:03:53;;;;;;;;;;;;;;;;;;10317506;28;20080;-59
2023/06/21 15:08:52;;;;;;;4.78;4.18;;;;;;;;;;10317034;28;19960;-60
2023/06/21 15:13:51;;;;;;;7.10;5.93;;;;;;;;;;10319201;28;20887;-59
2023/06/21 15:18:49;;;;;;;11.15;5.65;;;;;;;;;;10317094;28;20084;-59
2023/06/21 15:23:47;;;;;;;11.73;5.72;;;;;;;;;;10316467;28;20060;-59
2023/06/21 15:28:47;;;;;;;5.07;4.40;;;;;;;;;;10317884;28;20075;-59
2023/06/21 15:33:46;;;;;;;14.80;6.15;;;;;;;;;;10318274;28;20485;-59
2023/06/21 15:38:47;;;;;;;8.57;5.65;;;;;;;;;;10317912;28;20068;-59
2023/06/21 15:43:45;;;;;;;8.20;7.40;;;;;;;;;;10316922;28;20076;-59
2023/06/21 15:48:44;;;;;;;8.25;5.93;;;;;;;;;;10317471;28;20064;-59
2023/06/21 15:53:43;;;;;;;7.03;5.40;;;;;;;;;;10317207;28;20497;-59
2023/06/21 15:58:41;;;;;;;6.55;5.88;;;;;;;;;;10316607;28;20068;-59
2023/06/21 16:03:40;;;;;;;6.22;5.43;;;;;;;;;;10316452;28;20076;-60
2023/06/21 16:08:41;;;;;;;8.18;6.07;;;;;;;;;;10316444;28;20068;-60
2023/06/21 16:13:40;;;;;;;9.02;6.55;;;;;;;;;;10315632;28;20075;-59
2023/06/21 16:18:45;;;;;;;6.93;6.25;;;;;;;;;;10315591;28;20078;-59
2023/06/21 16:23:46;;;;;;;9.75;7.10;;;;;;;;;;10311933;28;20080;-58
2023/06/21 16:28:44;;;;;;;15.10;7.53;;;;;;;;;;10296469;28;20067;-59
2023/06/21 16:33:42;;;;;;;10.57;8.20;;;;;;;;;;10303990;28;20060;-60
2023/06/21 16:38:41;;;;;;;16.73;7.13;;;;;;;;;;10310419;28;20076;-60
2023/06/21 16:43:40;;;;;;;18.60;6.53;;;;;;;;;;10306955;28;20075;-59
2023/06/21 16:48:38;;;;;;;7.18;6.00;;;;;;;;;;10307813;28;20528;-59
2023/06/21 16:53:37;;;;;;;17.42;8.20;;;;;;;;;;10303220;28;20086;-56
2023/06/21 16:58:36;;;;;;;13.65;6.50;;;;;;;;;;10307929;28;20503;-59
2023/06/21 17:03:35;;;;;;;17.02;8.40;;;;;;;;;;10307557;28;20537;-63
2023/06/21 17:08:34;;;;;;;28.60;25.58;;;;;;;;;;10310226;28;20063;-59
2023/06/21 17:13:32;;;;;;;11.52;8.23;;;;;;;;;;10308261;28;20083;-58
2023/06/21 17:18:30;;;;;;;26.70;20.23;;;;;;;;;;10309723;28;20060;-58
2023/06/21 17:23:30;;;;;;;18.20;10.80;;;;;;;;;;10311755;28;20071;-60
2023/06/21 17:28:28;;;;;;;16.33;14.63;;;;;;;;;;10308838;28;20072;-59
2023/06/21 17:33:26;;;;;;;13.55;11.05;;;;;;;;;;10311724;28;20075;-59
2023/06/21 17:38:25;;;;;;;7.07;6.35;;;;;;;;;;10309239;28;20080;-58
2023/06/21 17:43:24;;;;;;;13.27;11.95;;;;;;;;;;10308407;28;20089;-60
2023/06/21 17:48:22;;;;;;;33.35;29.92;;;;;;;;;;10310485;28;20068;-59
2023/06/21 17:53:21;;;;;;;13.98;12.45;;;;;;;;;;10309057;28;20075;-59
2023/06/21 17:58:19;;;;;;;23.48;21.05;;;;;;;;;;10308143;28;20080;-60
2023/06/21 18:03:19;;;;;;;9.25;6.97;;;;;;;;;;10308988;28;20076;-59
2023/06/21 18:08:17;;;;;;;12.98;11.38;;;;;;;;;;10308402;28;20118;-59
2023/06/21 18:13:16;;;;;;;14.75;13.35;;;;;;;;;;10308959;28;20079;-59
2023/06/21 18:18:14;;;;;;;8.40;6.47;;;;;;;;;;10306591;28;20072;-60
2023/06/21 18:23:14;;;;;;;10.93;5.60;;;;;;;;;;10309852;28;20633;-59
2023/06/21 18:28:12;;;;;;;10.85;7.97;;;;;;;;;;10306238;28;20118;-59
2023/06/21 18:33:10;;;;;;;6.97;6.22;;;;;;;;;;10308562;28;20079;-59
2023/06/21 18:38:09;;;;;;;8.70;6.05;;;;;;;;;;10313536;28;20611;-59
2023/06/21 18:43:09;;;;;;;8.10;7.28;;;;;;;;;;10315376;28;20068;-58
2023/06/21 18:48:07;;;;;;;8.60;7.25;;;;;;;;;;10316049;28;20087;-59
2023/06/21 18:53:05;;;;;;;7.30;6.70;;;;;;;;;;10312714;28;20076;-59
2023/06/21 18:58:04;;;;;;;9.73;7.53;;;;;;;;;;10309602;28;20080;-59
2023/06/21 19:03:04;;;;;;;7.50;6.72;;;;;;;;;;10306477;28;20076;-57
2023/06/21 19:08:02;;;;;;;10.20;7.13;;;;;;;;;;10315719;28;20501;-55
2023/06/21 19:13:00;;;;;;;7.43;6.82;;;;;;;;;;10311820;28;20474;-52
2023/06/21 19:17:59;;;;;;;10.60;7.43;;;;;;;;;;10311628;28;20079;-58
2023/06/21 19:22:58;;;;;;;11.48;10.48;;;;;;;;;;10306039;28;20080;-58
2023/06/21 19:27:57;;;;;;;8.18;7.38;;;;;;;;;;10309484;28;20049;-59
2023/06/21 19:32:55;;;;;;;8.57;7.18;;;;;;;;;;10306969;28;20072;-58
2023/06/21 19:37:53;;;;;;;10.35;7.45;;;;;;;;;;10313647;28;20076;-59
2023/06/21 19:42:53;;;;;;;9.13;8.20;;;;;;;;;;10307778;28;20447;-57
2023/06/21 19:47:52;;;;;;;7.90;7.25;;;;;;;;;;10313537;28;20456;-54
2023/06/21 19:52:57;;;;;;;8.98;6.80;;;;;;;;;;10310906;28;20080;-57
2023/06/21 19:57:57;;;;;;;11.95;10.35;;;;;;;;;;10312365;28;20091;-56
2023/06/21 20:02:55;;;;;;;9.60;7.32;;;;;;;;;;10303715;28;20081;-57
2023/06/21 20:07:55;;;;;;;15.07;8.73;;;;;;;;;;10302424;28;20084;-57
2023/06/21 20:12:54;;;;;;;15.02;10.55;;;;;;;;;;10301102;28;20511;-59
2023/06/21 20:17:53;;;;;;;9.60;7.43;;;;;;;;;;10305706;28;20072;-57
2023/06/21 20:22:51;;;;;;;8.35;7.50;;;;;;;;;;10307373;28;20485;-57
2023/06/21 20:27:50;;;;;;;7.18;6.57;;;;;;;;;;10305870;28;20072;-54
2023/06/21 20:32:48;;;;;;;12.55;8.27;;;;;;;;;;10306947;28;20095;-58
2023/06/21 20:37:49;;;;;;;8.77;7.85;;;;;;;;;;10310144;28;20072;-58
2023/06/21 20:42:49;;;;;;;8.20;7.40;;;;;;;;;;10309173;28;20474;-59
2023/06/21 20:47:47;;;;;;;12.88;7.93;;;;;;;;;;10308721;28;20479;-57
2023/06/21 20:52:45;;;;;;;8.70;7.90;;;;;;;;;;10304179;28;20064;-58
2023/06/21 20:57:45;;;;;;;8.20;7.47;;;;;;;;;;10312173;28;20079;-59
2023/06/21 21:02:43;;;;;;;6.88;6.22;;;;;;;;;;10291862;28;20072;-59
2023/06/21 21:07:41;;;;;;;8.18;6.72;;;;;;;;;;10289194;28;20080;-59
2023/06/21 21:12:40;;;;;;;10.18;6.85;;;;;;;;;;10309158;28;20068;-58
2023/06/21 21:17:39;;;;;;;8.95;7.65;;;;;;;;;;10310795;28;20114;-58
2023/06/21 21:22:38;;;;;;;10.07;6.20;;;;;;;;;;10309008;28;20064;-59
2023/06/21 21:27:37;;;;;;;7.22;5.90;;;;;;;;;;10311852;28;20068;-60
2023/06/21 21:32:36;;;;;;;8.70;5.57;;;;;;;;;;10300208;28;20086;-58
2023/06/21 21:37:35;;;;;;;8.95;5.95;;;;;;;;;;10300321;28;20671;-59
2023/06/21 21:42:33;;;;;;;9.93;7.10;;;;;;;;;;10303718;28;20509;-59
2023/06/21 21:47:35;;;;;;;6.15;5.55;;;;;;;;;;10310836;28;20501;-60
2023/06/21 21:52:33;;;;;;;6.65;5.75;;;;;;;;;;10301710;28;20060;-59
2023/06/21 21:57:33;;;;;;;6.45;5.90;;;;;;;;;;10293822;28;20525;-60
2023/06/21 22:02:31;;;;;;;8.68;6.43;;;;;;;;;;10304058;28;20083;-58
2023/06/21 22:07:30;;;;;;;6.05;5.45;;;;;;;;;;10309227;28;20114;-59
2023/06/21 22:12:29;;;;;;;7.07;6.47;;;;;;;;;;10307108;28;20071;-59
2023/06/21 22:17:29;;;;;;;9.60;6.53;;;;;;;;;;10313426;28;20498;-58
2023/06/21 22:22:27;;;;;;;7.53;6.82;;;;;;;;;;10305717;28;20076;-59
2023/06/21 22:27:25;;;;;;;8.23;6.13;;;;;;;;;;10309245;28;20068;-58
2023/06/21 22:32:24;;;;;;;8.52;5.97;;;;;;;;;;10315967;28;20068;-59
2023/06/21 22:37:24;;;;;;;8.80;6.15;;;;;;;;;;10314732;28;20091;-59
2023/06/21 22:42:23;;;;;;;7.43;6.78;;;;;;;;;;10317269;28;20072;-58
2023/06/21 22:47:23;;;;;;;9.18;7.90;;;;;;;;;;10311025;28;20143;-58
2023/06/21 22:52:22;;;;;;;7.75;6.50;;;;;;;;;;10315890;28;20079;-59
2023/06/21 22:57:21;;;;;;;8.07;6.57;;;;;;;;;;10314147;28;20068;-59
2023/06/21 23:02:21;;;;;;;6.85;6.30;;;;;;;;;;10313285;28;20080;-58
2023/06/21 23:07:20;;;;;;;8.25;7.45;;;;;;;;;;10315181;28;20084;-58
2023/06/21 23:12:19;;;;;;;7.07;6.32;;;;;;;;;;10313301;28;20075;-58
2023/06/21 23:17:19;;;;;;;7.72;6.93;;;;;;;;;;10314102;28;20075;-58
2023/06/21 23:22:18;;;;;;;8.38;7.65;;;;;;;;;;10312244;28;20073;-59
2023/06/21 23:27:16;;;;;;;7.38;6.68;;;;;;;;;;10314275;28;20107;-59
2023/06/21 23:32:24;;;;;;;12.38;6.35;;;;;;;;;;10315307;28;20068;-60
2023/06/21 23:37:28;;;;;;;6.43;5.78;;;;;;;;;;10314496;28;20076;-59
2023/06/21 23:42:28;;;;;;;10.55;6.90;;;;;;;;;;10313578;28;20083;-59
2023/06/21 23:47:26;;;;;;;8.32;7.38;;;;;;;;;;10310570;28;20068;-59
2023/06/21 23:52:25;;;;;;;7.47;6.10;;;;;;;;;;10312809;28;20068;-59
2023/06/21 23:57:24;;;;;;;7.57;5.93;;;;;;;;;;10309739;28;20543;-59
